Time;durP1;ratioP1;P1;durP2;ratioP2;P2;SDS_P1;SDS_P2;PMS_P1;PMS_P2;Temp;Humidity;BMP_temperature;BMP_pressure;BME280_temperature;BME280_humidity;BME280_pressure;Samples;Min_cycle;Max_cycle;Signal;HPM_P1;HPM_P2
2021/12/27 00:01:56;;;;;;;6.25;4.47;;;;;;;;;;5072523;28;20039;-68
2021/12/27 00:04:22;;;;;;;6.72;4.93;;;;;;;;;;5072343;28;20032;-68
2021/12/27 00:06:48;;;;;;;6.57;4.57;;;;;;;;;;5073670;28;20021;-70
2021/12/27 00:09:14;;;;;;;6.97;5.22;;;;;;;;;;5076058;28;20036;-68
2021/12/27 00:11:40;;;;;;;9.88;4.90;;;;;;;;;;5074810;28;20024;-70
2021/12/27 00:14:06;;;;;;;7.13;4.60;;;;;;;;;;5076203;28;20471;-67
2021/12/27 00:16:32;;;;;;;6.53;4.65;;;;;;;;;;5074358;28;20052;-69
2021/12/27 00:18:58;;;;;;;6.60;4.68;;;;;;;;;;5076090;28;20025;-68
2021/12/27 00:21:24;;;;;;;5.88;4.30;;;;;;;;;;5076081;28;20036;-70
2021/12/27 00:23:50;;;;;;;6.10;4.72;;;;;;;;;;5095898;28;20063;-70
2021/12/27 00:26:16;;;;;;;7.40;4.60;;;;;;;;;;5096080;28;20108;-70
2021/12/27 00:28:42;;;;;;;6.97;4.57;;;;;;;;;;5096257;28;20024;-71
2021/12/27 00:31:08;;;;;;;5.85;4.35;;;;;;;;;;5096376;28;20024;-71
2021/12/27 00:33:34;;;;;;;7.72;4.60;;;;;;;;;;5095916;28;20055;-70
2021/12/27 00:36:00;;;;;;;6.65;4.05;;;;;;;;;;5077918;28;20036;-70
2021/12/27 00:38:26;;;;;;;7.28;4.20;;;;;;;;;;5095717;28;20027;-68
2021/12/27 00:40:52;;;;;;;5.50;4.18;;;;;;;;;;5095435;28;20024;-68
2021/12/27 00:43:18;;;;;;;5.65;4.03;;;;;;;;;;5095624;28;20764;-71
2021/12/27 00:45:44;;;;;;;7.07;4.32;;;;;;;;;;5095661;28;20024;-70
2021/12/27 00:48:10;;;;;;;6.90;4.63;;;;;;;;;;5095535;28;20046;-68
2021/12/27 00:50:36;;;;;;;7.18;4.80;;;;;;;;;;5095406;28;20455;-70
2021/12/27 00:53:03;;;;;;;7.63;4.47;;;;;;;;;;5077425;28;20482;-68
2021/12/27 00:55:29;;;;;;;6.47;4.63;;;;;;;;;;5095195;28;20130;-70
2021/12/27 00:57:54;;;;;;;5.88;4.18;;;;;;;;;;5095636;28;20051;-67
2021/12/27 01:00:22;;;;;;;5.72;4.20;;;;;;;;;;5095268;28;20032;-70
2021/12/27 01:02:49;;;;;;;6.63;4.50;;;;;;;;;;5095402;28;20020;-71
2021/12/27 01:05:15;;;;;;;5.18;3.70;;;;;;;;;;5095107;28;20024;-70
2021/12/27 01:07:41;;;;;;;8.38;4.60;;;;;;;;;;5077244;28;20028;-70
2021/12/27 01:12:52;;;;;;;7.97;4.38;;;;;;;;;;5095536;28;20610;-70
2021/12/27 01:17:46;;;;;;;8.30;4.78;;;;;;;;;;5094839;28;20460;-71
2021/12/27 01:20:14;;;;;;;7.22;4.38;;;;;;;;;;5094735;28;20105;-71
2021/12/27 01:22:40;;;;;;;6.78;4.28;;;;;;;;;;5094637;28;20048;-69
2021/12/27 01:25:07;;;;;;;7.15;4.90;;;;;;;;;;5094744;28;20085;-70
2021/12/27 01:27:34;;;;;;;6.75;4.47;;;;;;;;;;5095046;28;20031;-68
2021/12/27 01:30:00;;;;;;;8.68;4.72;;;;;;;;;;5076607;28;20032;-68
2021/12/27 01:32:30;;;;;;;7.05;4.88;;;;;;;;;;5076908;28;20367;-71
2021/12/27 01:34:56;;;;;;;5.30;4.18;;;;;;;;;;5076282;28;20439;-70
2021/12/27 01:37:23;;;;;;;7.13;4.75;;;;;;;;;;5076501;28;20530;-71
2021/12/27 01:39:49;;;;;;;7.07;4.40;;;;;;;;;;5094953;28;20039;-69
2021/12/27 01:42:14;;;;;;;8.15;5.18;;;;;;;;;;5076354;28;20020;-68
2021/12/27 01:44:41;;;;;;;6.38;4.60;;;;;;;;;;5094559;28;20094;-70
2021/12/27 01:47:09;;;;;;;6.65;4.72;;;;;;;;;;5094508;28;20016;-69
2021/12/27 01:49:35;;;;;;;6.78;4.32;;;;;;;;;;5094397;28;20020;-70
2021/12/27 01:52:01;;;;;;;7.95;4.70;;;;;;;;;;5081749;28;20028;-70
2021/12/27 01:54:27;;;;;;;6.05;4.50;;;;;;;;;;5074332;28;20104;-71
2021/12/27 01:56:53;;;;;;;8.07;5.15;;;;;;;;;;5074164;28;20040;-70
2021/12/27 01:59:19;;;;;;;6.85;4.40;;;;;;;;;;5074211;28;20077;-70
2021/12/27 02:01:45;;;;;;;8.48;4.70;;;;;;;;;;5074022;28;20028;-69
2021/12/27 02:04:11;;;;;;;6.00;4.25;;;;;;;;;;5074528;28;20017;-71
2021/12/27 02:06:37;;;;;;;7.50;5.03;;;;;;;;;;5073974;28;20028;-70
2021/12/27 02:09:04;;;;;;;7.90;5.05;;;;;;;;;;5074245;28;20030;-67
2021/12/27 02:11:34;;;;;;;8.48;4.88;;;;;;;;;;5055965;28;20028;-67
2021/12/27 02:14:01;;;;;;;6.47;4.45;;;;;;;;;;5073532;28;20097;-70
2021/12/27 02:16:27;;;;;;;8.20;4.40;;;;;;;;;;5073786;28;20035;-69
2021/12/27 02:18:53;;;;;;;7.28;4.65;;;;;;;;;;5073546;28;20091;-69
2021/12/27 02:21:20;;;;;;;5.57;3.97;;;;;;;;;;5055521;28;20029;-71
2021/12/27 02:23:48;;;;;;;8.02;4.75;;;;;;;;;;5073432;28;20044;-71
2021/12/27 02:26:14;;;;;;;6.38;4.38;;;;;;;;;;5073389;28;20031;-69
2021/12/27 02:28:40;;;;;;;6.68;4.57;;;;;;;;;;5073467;28;20035;-69
2021/12/27 02:31:06;;;;;;;6.85;4.78;;;;;;;;;;5073079;28;20502;-70
2021/12/27 02:33:32;;;;;;;6.85;4.55;;;;;;;;;;5073297;28;20103;-70
2021/12/27 02:35:59;;;;;;;6.93;4.55;;;;;;;;;;5073264;28;20476;-70
2021/12/27 02:38:27;;;;;;;7.35;4.82;;;;;;;;;;5073469;28;20035;-70
2021/12/27 02:40:53;;;;;;;8.57;5.47;;;;;;;;;;5073263;28;20555;-70
2021/12/27 02:43:20;;;;;;;6.47;4.90;;;;;;;;;;5073519;28;20036;-69
2021/12/27 02:45:47;;;;;;;5.93;4.57;;;;;;;;;;5073361;28;20069;-71
2021/12/27 02:48:14;;;;;;;6.57;4.80;;;;;;;;;;5073448;28;20021;-70
2021/12/27 02:50:41;;;;;;;6.97;4.80;;;;;;;;;;5055165;28;20503;-69
2021/12/27 02:53:07;;;;;;;6.57;4.85;;;;;;;;;;5073416;28;20020;-69
2021/12/27 02:55:34;;;;;;;7.47;4.88;;;;;;;;;;5073177;28;20042;-71
2021/12/27 02:58:00;;;;;;;8.07;4.65;;;;;;;;;;5055392;28;20020;-67
2021/12/27 03:00:27;;;;;;;8.68;5.45;;;;;;;;;;5073075;28;20082;-71
2021/12/27 03:02:54;;;;;;;7.68;4.75;;;;;;;;;;5073071;28;20028;-69
2021/12/27 03:05:21;;;;;;;7.63;5.00;;;;;;;;;;5055106;28;20025;-70
2021/12/27 03:07:48;;;;;;;7.20;5.28;;;;;;;;;;5055378;28;20490;-70
2021/12/27 03:10:15;;;;;;;7.78;4.68;;;;;;;;;;5073620;28;20020;-70
2021/12/27 03:12:43;;;;;;;7.00;5.10;;;;;;;;;;5073399;28;20043;-70
2021/12/27 03:15:10;;;;;;;7.65;4.80;;;;;;;;;;5054965;28;20017;-71
2021/12/27 03:17:37;;;;;;;7.72;5.43;;;;;;;;;;5073163;28;20029;-68
2021/12/27 03:20:04;;;;;;;7.63;4.85;;;;;;;;;;5055122;28;20021;-68
2021/12/27 03:22:30;;;;;;;9.38;5.57;;;;;;;;;;5072719;28;20051;-70
2021/12/27 03:24:56;;;;;;;6.80;4.45;;;;;;;;;;5086847;28;20039;-71
2021/12/27 03:27:22;;;;;;;6.78;4.95;;;;;;;;;;5074799;28;20040;-71
2021/12/27 03:29:48;;;;;;;7.00;5.03;;;;;;;;;;5074922;28;20110;-69
2021/12/27 03:32:15;;;;;;;5.93;4.15;;;;;;;;;;5093176;28;20071;-68
2021/12/27 03:34:52;;;;;;;6.55;4.63;;;;;;;;;;5092909;28;20085;-69
2021/12/27 03:37:19;;;;;;;6.25;4.63;;;;;;;;;;5092888;28;20031;-69
2021/12/27 03:39:45;;;;;;;7.65;4.80;;;;;;;;;;5093242;28;20027;-68
2021/12/27 03:42:11;;;;;;;6.85;4.90;;;;;;;;;;5094743;28;20363;-70
2021/12/27 03:44:37;;;;;;;7.15;4.95;;;;;;;;;;5096924;28;20105;-71
2021/12/27 03:47:03;;;;;;;5.55;4.50;;;;;;;;;;5096817;28;20032;-71
2021/12/27 03:49:29;;;;;;;7.88;4.63;;;;;;;;;;5096975;28;20016;-67
2021/12/27 03:51:55;;;;;;;6.95;5.28;;;;;;;;;;5085060;28;20035;-68
2021/12/27 03:54:21;;;;;;;6.78;5.10;;;;;;;;;;5058748;28;20078;-68
2021/12/27 03:56:47;;;;;;;5.53;4.20;;;;;;;;;;5076275;28;20037;-69
2021/12/27 03:59:34;;;;;;;6.78;5.03;;;;;;;;;;5058691;28;20020;-67
2021/12/27 04:02:00;;;;;;;6.45;4.85;;;;;;;;;;5076432;28;20029;-68
2021/12/27 04:04:26;;;;;;;8.77;5.05;;;;;;;;;;5076319;28;20028;-68
2021/12/27 04:06:52;;;;;;;6.55;4.70;;;;;;;;;;5076036;28;20067;-68
2021/12/27 04:09:19;;;;;;;5.53;4.72;;;;;;;;;;5076346;28;20064;-68
2021/12/27 04:11:45;;;;;;;6.43;4.25;;;;;;;;;;5076419;28;20486;-67
2021/12/27 04:14:11;;;;;;;7.20;4.78;;;;;;;;;;5076145;28;20627;-68
2021/12/27 04:16:37;;;;;;;5.97;4.72;;;;;;;;;;5075968;28;20139;-68
2021/12/27 04:19:03;;;;;;;6.10;4.40;;;;;;;;;;5058370;28;20024;-67
2021/12/27 04:21:29;;;;;;;7.53;4.50;;;;;;;;;;5058017;28;20051;-66
2021/12/27 04:23:55;;;;;;;6.13;4.75;;;;;;;;;;5039091;28;20086;-69
2021/12/27 04:26:22;;;;;;;5.60;4.50;;;;;;;;;;5056042;28;20396;-69
2021/12/27 04:28:49;;;;;;;6.63;4.80;;;;;;;;;;5055789;28;20521;-71
2021/12/27 04:31:15;;;;;;;5.35;4.43;;;;;;;;;;5055658;28;20070;-70
2021/12/27 04:33:41;;;;;;;6.38;4.57;;;;;;;;;;5055920;28;20021;-69
2021/12/27 04:36:07;;;;;;;6.53;4.50;;;;;;;;;;5055776;28;20112;-70
2021/12/27 04:38:33;;;;;;;7.30;4.78;;;;;;;;;;5055729;28;20036;-70
2021/12/27 04:41:00;;;;;;;7.55;5.05;;;;;;;;;;5055709;28;20539;-71
2021/12/27 04:43:26;;;;;;;5.63;4.22;;;;;;;;;;5055508;28;20036;-69
2021/12/27 04:45:54;;;;;;;7.53;4.88;;;;;;;;;;5055626;28;20029;-70
2021/12/27 04:48:20;;;;;;;5.00;4.32;;;;;;;;;;5055654;28;20021;-70
2021/12/27 04:50:46;;;;;;;6.68;4.43;;;;;;;;;;5055349;28;20033;-67
2021/12/27 04:53:13;;;;;;;7.15;4.60;;;;;;;;;;5054975;28;20036;-70
2021/12/27 04:55:39;;;;;;;7.30;4.30;;;;;;;;;;5054212;28;20047;-71
2021/12/27 04:58:08;;;;;;;4.72;3.90;;;;;;;;;;5055457;28;20460;-71
2021/12/27 05:00:34;;;;;;;5.30;3.97;;;;;;;;;;5055082;28;20048;-71
2021/12/27 05:03:00;;;;;;;5.10;4.60;;;;;;;;;;5054124;28;20059;-70
2021/12/27 05:05:31;;;;;;;6.05;4.10;;;;;;;;;;5055142;28;20025;-70
2021/12/27 05:07:57;;;;;;;5.63;3.97;;;;;;;;;;5055170;28;20017;-68
2021/12/27 05:10:24;;;;;;;4.35;3.83;;;;;;;;;;5054893;28;20035;-69
2021/12/27 05:12:50;;;;;;;6.60;4.28;;;;;;;;;;5055132;28;20504;-70
2021/12/27 05:15:16;;;;;;;5.50;4.25;;;;;;;;;;5054987;28;20104;-71
2021/12/27 05:17:42;;;;;;;6.20;4.72;;;;;;;;;;5054890;28;20448;-67
2021/12/27 05:20:09;;;;;;;4.80;4.30;;;;;;;;;;5054668;28;20036;-69
2021/12/27 05:22:35;;;;;;;4.72;4.00;;;;;;;;;;5069524;28;20040;-67
2021/12/27 05:25:01;;;;;;;5.93;4.00;;;;;;;;;;5094773;28;20032;-70
2021/12/27 05:27:27;;;;;;;5.53;3.90;;;;;;;;;;5094993;28;20479;-71
2021/12/27 05:29:53;;;;;;;5.03;4.13;;;;;;;;;;5076939;28;20028;-67
2021/12/27 05:32:19;;;;;;;4.47;3.85;;;;;;;;;;5094520;28;20027;-68
2021/12/27 05:34:45;;;;;;;5.20;4.00;;;;;;;;;;5094653;28;20499;-71
2021/12/27 05:37:11;;;;;;;4.40;3.90;;;;;;;;;;5094712;28;20119;-68
2021/12/27 05:39:38;;;;;;;5.47;4.40;;;;;;;;;;5094752;28;20047;-71
2021/12/27 05:42:04;;;;;;;4.30;3.83;;;;;;;;;;5076558;28;20084;-71
2021/12/27 05:44:30;;;;;;;5.13;3.95;;;;;;;;;;5076661;28;20031;-71
2021/12/27 05:46:56;;;;;;;6.22;4.30;;;;;;;;;;5094489;28;20020;-71
2021/12/27 05:49:22;;;;;;;5.63;4.40;;;;;;;;;;5094455;28;20103;-71
2021/12/27 05:51:48;;;;;;;4.80;3.97;;;;;;;;;;5083978;28;20039;-72
2021/12/27 05:54:14;;;;;;;4.72;4.20;;;;;;;;;;5074256;28;20472;-71
2021/12/27 05:56:43;;;;;;;4.25;3.55;;;;;;;;;;5073933;28;20040;-71
2021/12/27 05:59:10;;;;;;;5.85;4.32;;;;;;;;;;5074109;28;20816;-71
2021/12/27 06:01:36;;;;;;;6.38;4.40;;;;;;;;;;5073913;28;20036;-67
2021/12/27 06:04:02;;;;;;;6.22;4.00;;;;;;;;;;5055499;28;20035;-71
2021/12/27 06:06:28;;;;;;;5.82;4.18;;;;;;;;;;5074386;28;20032;-68
2021/12/27 06:08:54;;;;;;;5.43;4.47;;;;;;;;;;5074112;28;20047;-68
2021/12/27 06:11:20;;;;;;;6.55;3.80;;;;;;;;;;5073720;28;20028;-71
2021/12/27 06:13:46;;;;;;;5.38;4.22;;;;;;;;;;5073661;28;20039;-71
2021/12/27 06:16:12;;;;;;;5.88;4.25;;;;;;;;;;5073669;28;20062;-70
2021/12/27 06:18:38;;;;;;;6.20;4.68;;;;;;;;;;5055522;28;20103;-69
2021/12/27 06:21:05;;;;;;;5.97;4.57;;;;;;;;;;5073489;28;20494;-71
2021/12/27 06:23:33;;;;;;;4.53;3.83;;;;;;;;;;5075609;28;20045;-71
2021/12/27 06:25:59;;;;;;;6.25;4.47;;;;;;;;;;5093841;28;20028;-71
2021/12/27 06:28:27;;;;;;;5.05;4.00;;;;;;;;;;5093577;28;20091;-70
2021/12/27 06:30:53;;;;;;;5.15;4.30;;;;;;;;;;5075646;28;20031;-70
2021/12/27 06:33:19;;;;;;;5.95;4.35;;;;;;;;;;5093779;28;20020;-71
2021/12/27 06:35:45;;;;;;;5.22;4.30;;;;;;;;;;5071751;28;20035;-67
2021/12/27 06:38:11;;;;;;;5.80;4.78;;;;;;;;;;5073259;28;20064;-71
2021/12/27 06:40:37;;;;;;;4.55;4.13;;;;;;;;;;5073174;28;20059;-72
2021/12/27 06:43:03;;;;;;;5.40;4.15;;;;;;;;;;5072020;28;20020;-70
2021/12/27 06:45:29;;;;;;;6.18;4.65;;;;;;;;;;5073332;28;20102;-67
2021/12/27 06:47:55;;;;;;;7.25;5.03;;;;;;;;;;5071846;28;20036;-67
2021/12/27 06:50:23;;;;;;;5.60;4.40;;;;;;;;;;5073219;28;20067;-71
2021/12/27 06:52:49;;;;;;;6.40;4.63;;;;;;;;;;5073170;28;20016;-70
2021/12/27 06:55:15;;;;;;;5.43;4.15;;;;;;;;;;5073083;28;20111;-67
2021/12/27 06:57:41;;;;;;;5.22;4.32;;;;;;;;;;5073249;28;20078;-69
2021/12/27 07:00:09;;;;;;;6.47;4.85;;;;;;;;;;5073092;28;20509;-71
2021/12/27 07:02:35;;;;;;;6.15;4.60;;;;;;;;;;5073419;28;20027;-72
2021/12/27 07:05:01;;;;;;;6.47;4.95;;;;;;;;;;5073212;28;20024;-71
2021/12/27 07:07:27;;;;;;;4.80;4.30;;;;;;;;;;5073349;28;20440;-72
2021/12/27 07:09:53;;;;;;;5.53;4.45;;;;;;;;;;5073441;28;20031;-68
2021/12/27 07:12:19;;;;;;;6.35;4.72;;;;;;;;;;5072574;28;20021;-68
2021/12/27 07:14:48;;;;;;;5.65;4.60;;;;;;;;;;5071467;28;20032;-70
2021/12/27 07:17:14;;;;;;;6.63;4.97;;;;;;;;;;5075214;28;20024;-67
2021/12/27 07:19:40;;;;;;;4.90;4.30;;;;;;;;;;5077030;28;20100;-71
2021/12/27 07:22:06;;;;;;;5.47;4.57;;;;;;;;;;5078904;28;20055;-70
2021/12/27 07:24:32;;;;;;;4.95;4.18;;;;;;;;;;5097195;28;20028;-68
2021/12/27 07:26:58;;;;;;;5.82;4.68;;;;;;;;;;5096845;28;20024;-69
2021/12/27 07:29:24;;;;;;;6.40;4.95;;;;;;;;;;5078939;28;20447;-70
2021/12/27 07:31:50;;;;;;;7.90;5.43;;;;;;;;;;5097501;28;20349;-71
2021/12/27 07:34:19;;;;;;;5.97;4.88;;;;;;;;;;5097163;28;20020;-70
2021/12/27 07:36:45;;;;;;;6.15;4.50;;;;;;;;;;5096867;28;20127;-70
2021/12/27 07:39:11;;;;;;;5.90;4.55;;;;;;;;;;5078800;28;20043;-69
2021/12/27 07:41:37;;;;;;;6.47;4.93;;;;;;;;;;5078387;28;20077;-70
2021/12/27 07:44:03;;;;;;;5.00;4.50;;;;;;;;;;5096691;28;20025;-67
2021/12/27 07:46:29;;;;;;;6.25;4.75;;;;;;;;;;5096959;28;20035;-70
2021/12/27 07:48:55;;;;;;;6.55;5.07;;;;;;;;;;5096770;28;20035;-70
2021/12/27 07:51:22;;;;;;;5.70;4.40;;;;;;;;;;5089858;28;20027;-71
2021/12/27 07:53:48;;;;;;;6.28;5.13;;;;;;;;;;5058437;28;20116;-72
2021/12/27 07:56:14;;;;;;;5.65;4.55;;;;;;;;;;5076610;28;20116;-70
2021/12/27 07:58:40;;;;;;;6.30;4.72;;;;;;;;;;5076186;28;20103;-70
2021/12/27 08:01:06;;;;;;;6.93;4.95;;;;;;;;;;5076668;28;20132;-70
2021/12/27 08:03:32;;;;;;;7.20;5.20;;;;;;;;;;5076243;28;20420;-71
2021/12/27 08:05:58;;;;;;;6.43;5.10;;;;;;;;;;5076185;28;20024;-67
2021/12/27 08:08:24;;;;;;;5.35;4.68;;;;;;;;;;5076068;28;20341;-69
2021/12/27 08:10:50;;;;;;;5.30;4.50;;;;;;;;;;5058041;28;20491;-71
2021/12/27 08:13:16;;;;;;;5.72;4.95;;;;;;;;;;5075993;28;20020;-69
2021/12/27 08:15:42;;;;;;;6.72;5.20;;;;;;;;;;5057718;28;20037;-72
2021/12/27 08:18:08;;;;;;;6.28;5.20;;;;;;;;;;5057872;28;20025;-70
2021/12/27 08:20:34;;;;;;;6.65;4.93;;;;;;;;;;5075809;28;20372;-71
2021/12/27 08:23:00;;;;;;;5.30;4.80;;;;;;;;;;5057508;28;20372;-68
2021/12/27 08:25:26;;;;;;;6.13;5.03;;;;;;;;;;5075160;28;20457;-71
2021/12/27 08:27:52;;;;;;;6.28;4.75;;;;;;;;;;5074900;28;20043;-70
2021/12/27 08:30:18;;;;;;;6.80;4.85;;;;;;;;;;5074059;28;20028;-68
2021/12/27 08:32:46;;;;;;;6.47;5.10;;;;;;;;;;5075343;28;20035;-71
2021/12/27 08:35:13;;;;;;;6.18;5.43;;;;;;;;;;5074915;28;20036;-71
2021/12/27 08:37:40;;;;;;;6.15;4.97;;;;;;;;;;5073865;28;20066;-69
2021/12/27 08:40:06;;;;;;;7.05;5.47;;;;;;;;;;5074144;28;20067;-68
2021/12/27 08:42:32;;;;;;;8.15;5.28;;;;;;;;;;5075202;28;20483;-69
2021/12/27 08:44:59;;;;;;;6.35;5.22;;;;;;;;;;5075391;28;20020;-69
2021/12/27 08:47:25;;;;;;;5.68;4.60;;;;;;;;;;5075142;28;20390;-71
2021/12/27 08:49:51;;;;;;;6.15;4.95;;;;;;;;;;5075067;28;20085;-69
2021/12/27 08:52:17;;;;;;;5.75;4.45;;;;;;;;;;5075139;28;20059;-71
2021/12/27 08:54:43;;;;;;;6.88;4.97;;;;;;;;;;5074913;28;20052;-67
2021/12/27 08:57:09;;;;;;;6.13;4.93;;;;;;;;;;5074624;28;20036;-70
2021/12/27 08:59:38;;;;;;;6.95;4.90;;;;;;;;;;5075171;28;20024;-67
2021/12/27 09:02:04;;;;;;;6.38;4.97;;;;;;;;;;5074650;28;20105;-67
2021/12/27 09:04:31;;;;;;;5.35;4.38;;;;;;;;;;5074584;28;20024;-72
2021/12/27 09:06:57;;;;;;;6.07;4.88;;;;;;;;;;5074491;28;20388;-68
2021/12/27 09:09:22;;;;;;;6.00;4.70;;;;;;;;;;5074566;28;20033;-70
2021/12/27 09:11:48;;;;;;;6.18;4.47;;;;;;;;;;5074336;28;20050;-69
2021/12/27 09:14:15;;;;;;;6.43;5.13;;;;;;;;;;5074266;28;20066;-67
2021/12/27 09:16:41;;;;;;;5.78;4.80;;;;;;;;;;5074082;28;20072;-69
2021/12/27 09:19:07;;;;;;;6.32;4.80;;;;;;;;;;5073927;28;20024;-69
2021/12/27 09:21:33;;;;;;;6.15;4.60;;;;;;;;;;5074147;28;20020;-70
2021/12/27 09:23:59;;;;;;;5.93;4.63;;;;;;;;;;5058862;28;20036;-66
2021/12/27 09:26:25;;;;;;;7.32;4.70;;;;;;;;;;5075040;28;20370;-68
2021/12/27 09:28:51;;;;;;;5.82;4.80;;;;;;;;;;5074321;28;20464;-71
2021/12/27 09:31:17;;;;;;;6.32;5.00;;;;;;;;;;5074008;28;20067;-70
2021/12/27 09:33:43;;;;;;;5.55;4.55;;;;;;;;;;5072878;28;20032;-70
2021/12/27 09:36:09;;;;;;;5.05;4.30;;;;;;;;;;5074059;28;20494;-71
2021/12/27 09:38:35;;;;;;;6.40;4.82;;;;;;;;;;5073900;28;20025;-67
2021/12/27 09:41:01;;;;;;;6.72;5.10;;;;;;;;;;5071711;28;20097;-71
2021/12/27 09:43:28;;;;;;;7.57;5.03;;;;;;;;;;5055761;28;20028;-68
2021/12/27 09:45:54;;;;;;;5.93;4.85;;;;;;;;;;5073871;28;20029;-71
2021/12/27 09:48:20;;;;;;;6.70;5.40;;;;;;;;;;5072529;28;20028;-70
2021/12/27 09:50:47;;;;;;;6.03;4.80;;;;;;;;;;5073619;28;20025;-69
2021/12/27 09:53:13;;;;;;;5.55;4.40;;;;;;;;;;5073758;28;20166;-71
2021/12/27 09:55:40;;;;;;;5.32;4.45;;;;;;;;;;5073580;28;20485;-70
2021/12/27 09:58:06;;;;;;;6.60;4.88;;;;;;;;;;5073732;28;20051;-67
2021/12/27 10:00:32;;;;;;;5.72;5.13;;;;;;;;;;5073387;28;20024;-70
2021/12/27 10:02:59;;;;;;;6.03;5.13;;;;;;;;;;5073529;28;20454;-68
2021/12/27 10:05:25;;;;;;;6.03;5.00;;;;;;;;;;5073752;28;20097;-68
2021/12/27 10:07:52;;;;;;;6.78;5.25;;;;;;;;;;5072167;28;20059;-70
2021/12/27 10:10:18;;;;;;;5.70;4.90;;;;;;;;;;5073177;28;20017;-70
2021/12/27 10:12:44;;;;;;;6.38;4.72;;;;;;;;;;5073049;28;20094;-71
2021/12/27 10:15:12;;;;;;;5.47;4.78;;;;;;;;;;5073444;28;20353;-69
2021/12/27 10:17:38;;;;;;;4.88;4.38;;;;;;;;;;5073180;28;20034;-68
2021/12/27 10:20:16;;;;;;;6.20;4.80;;;;;;;;;;5072967;28;20035;-70
2021/12/27 10:22:43;;;;;;;5.82;5.10;;;;;;;;;;5072653;28;20048;-71
2021/12/27 10:25:13;;;;;;;5.45;4.30;;;;;;;;;;5073093;28;20036;-70
2021/12/27 10:27:39;;;;;;;5.38;4.55;;;;;;;;;;5054916;28;20054;-69
2021/12/27 10:30:14;;;;;;;5.80;4.85;;;;;;;;;;5073750;28;20051;-71
2021/12/27 10:32:40;;;;;;;4.88;4.20;;;;;;;;;;5073286;28;20017;-72
2021/12/27 10:35:07;;;;;;;5.45;4.63;;;;;;;;;;5077671;28;20028;-71
2021/12/27 10:37:35;;;;;;;6.18;4.72;;;;;;;;;;5092898;28;20028;-70
2021/12/27 10:40:04;;;;;;;6.05;4.90;;;;;;;;;;5093132;28;20020;-69
2021/12/27 10:42:31;;;;;;;5.05;4.40;;;;;;;;;;5093117;28;20028;-68
2021/12/27 10:44:58;;;;;;;5.57;4.80;;;;;;;;;;5093094;28;20089;-70
2021/12/27 10:47:28;;;;;;;5.63;4.32;;;;;;;;;;5093346;28;20024;-69
2021/12/27 10:49:55;;;;;;;5.75;4.22;;;;;;;;;;5074523;28;20055;-70
2021/12/27 10:52:21;;;;;;;5.68;4.60;;;;;;;;;;5092746;28;20047;-69
2021/12/27 10:54:47;;;;;;;4.78;4.22;;;;;;;;;;5092904;28;20079;-70
2021/12/27 10:57:14;;;;;;;5.43;4.40;;;;;;;;;;5074427;28;20040;-70
2021/12/27 10:59:40;;;;;;;4.40;3.88;;;;;;;;;;5074370;28;20031;-69
2021/12/27 11:02:14;;;;;;;5.22;4.32;;;;;;;;;;5074830;28;20028;-67
2021/12/27 11:04:40;;;;;;;4.72;4.22;;;;;;;;;;5092781;28;20028;-67
2021/12/27 11:07:06;;;;;;;4.60;4.13;;;;;;;;;;5092820;28;20024;-66
2021/12/27 11:09:33;;;;;;;5.65;4.53;;;;;;;;;;5092589;28;20032;-66
2021/12/27 11:11:59;;;;;;;5.93;4.70;;;;;;;;;;5092404;28;20020;-66
2021/12/27 11:14:25;;;;;;;5.95;4.65;;;;;;;;;;5092324;28;20032;-67
2021/12/27 11:16:51;;;;;;;5.70;4.60;;;;;;;;;;5092409;28;20143;-68
2021/12/27 11:19:17;;;;;;;5.93;4.57;;;;;;;;;;5092844;28;20070;-69
2021/12/27 11:21:45;;;;;;;6.18;4.78;;;;;;;;;;5092136;28;20390;-71
2021/12/27 11:24:12;;;;;;;4.88;4.25;;;;;;;;;;5071205;28;20446;-72
2021/12/27 11:26:40;;;;;;;5.57;4.47;;;;;;;;;;5072196;28;20055;-73
2021/12/27 11:29:12;;;;;;;4.88;4.35;;;;;;;;;;5071107;28;20021;-70
2021/12/27 11:31:38;;;;;;;5.63;4.83;;;;;;;;;;5072477;28;20120;-68
2021/12/27 11:34:12;;;;;;;5.43;4.35;;;;;;;;;;5072330;28;20020;-70
2021/12/27 11:36:41;;;;;;;5.90;4.60;;;;;;;;;;5089726;28;20097;-72
2021/12/27 11:39:24;;;;;;;6.90;4.80;;;;;;;;;;5092475;28;20024;-69
2021/12/27 11:41:57;;;;;;;4.95;4.38;;;;;;;;;;5092046;28;20062;-69
2021/12/27 11:44:34;;;;;;;4.77;4.20;;;;;;;;;;5092081;28;20028;-67
2021/12/27 11:47:00;;;;;;;5.25;4.53;;;;;;;;;;5074199;28;20300;-69
2021/12/27 11:49:48;;;;;;;5.20;4.50;;;;;;;;;;5092528;28;20412;-71
2021/12/27 11:52:20;;;;;;;5.03;4.53;;;;;;;;;;5077877;28;20100;-72
2021/12/27 11:54:54;;;;;;;5.13;4.20;;;;;;;;;;5054064;28;20025;-71
2021/12/27 11:57:39;;;;;;;6.07;4.63;;;;;;;;;;5072257;28;20389;-69
2021/12/27 12:00:23;;;;;;;6.97;4.68;;;;;;;;;;5054113;28;20019;-71
2021/12/27 12:02:51;;;;;;;5.55;4.68;;;;;;;;;;5073521;28;20027;-68
2021/12/27 12:05:36;;;;;;;6.53;5.38;;;;;;;;;;5057596;28;20024;-71
2021/12/27 12:08:02;;;;;;;6.20;5.00;;;;;;;;;;5057814;28;20020;-71
2021/12/27 12:10:30;;;;;;;5.78;4.85;;;;;;;;;;5075524;28;20487;-72
2021/12/27 12:13:15;;;;;;;6.28;4.50;;;;;;;;;;5057504;28;20070;-70
2021/12/27 12:16:00;;;;;;;5.47;4.78;;;;;;;;;;5075420;28;20039;-69
2021/12/27 12:18:27;;;;;;;6.90;5.43;;;;;;;;;;5057375;28;20021;-72
2021/12/27 12:20:53;;;;;;;5.15;4.22;;;;;;;;;;5075335;28;20522;-68
2021/12/27 12:23:19;;;;;;;6.32;4.80;;;;;;;;;;5075502;28;20051;-69
2021/12/27 12:25:45;;;;;;;5.78;4.97;;;;;;;;;;5095579;28;20091;-69
2021/12/27 12:28:13;;;;;;;5.25;4.75;;;;;;;;;;5095200;28;20027;-71
2021/12/27 12:30:40;;;;;;;6.20;4.85;;;;;;;;;;5095353;28;20100;-71
2021/12/27 12:33:11;;;;;;;5.70;4.47;;;;;;;;;;5095564;28;20047;-71
2021/12/27 12:35:40;;;;;;;6.32;5.25;;;;;;;;;;5073658;28;20490;-69
2021/12/27 12:38:10;;;;;;;5.45;4.30;;;;;;;;;;5073731;28;20039;-72
2021/12/27 12:40:36;;;;;;;5.43;4.57;;;;;;;;;;5075246;28;20486;-73
2021/12/27 12:43:02;;;;;;;6.35;4.97;;;;;;;;;;5075109;28;20024;-67
2021/12/27 12:45:32;;;;;;;5.20;4.63;;;;;;;;;;5074826;28;20553;-71
2021/12/27 12:47:58;;;;;;;7.25;4.97;;;;;;;;;;5075038;28;20503;-71
2021/12/27 12:50:24;;;;;;;6.25;4.85;;;;;;;;;;5075092;28;20126;-71
2021/12/27 12:52:52;;;;;;;6.05;4.95;;;;;;;;;;5057760;28;20123;-71
2021/12/27 12:55:25;;;;;;;5.53;4.47;;;;;;;;;;5074631;28;20028;-71
2021/12/27 12:57:51;;;;;;;6.00;4.63;;;;;;;;;;5074602;28;20039;-70
2021/12/27 13:00:24;;;;;;;5.82;4.50;;;;;;;;;;5074661;28;20039;-68
2021/12/27 13:02:50;;;;;;;;;;;;;;;;;;5056952;28;20527;-69
2021/12/27 13:05:19;;;;;;;5.53;4.65;;;;;;;;;;5074763;28;19995;-69
2021/12/27 13:07:53;;;;;;;5.53;4.53;;;;;;;;;;5074510;28;20081;-67
2021/12/27 13:10:24;;;;;;;6.65;4.85;;;;;;;;;;5056441;28;20028;-68
2021/12/27 13:12:51;;;;;;;6.88;5.38;;;;;;;;;;5074377;28;20426;-71
2021/12/27 13:15:20;;;;;;;5.50;4.55;;;;;;;;;;5073512;28;20016;-68
2021/12/27 13:18:04;;;;;;;6.80;4.80;;;;;;;;;;5074561;28;20028;-68
2021/12/27 13:20:31;;;;;;;6.30;5.05;;;;;;;;;;5074582;28;20066;-71
2021/12/27 13:22:58;;;;;;;5.95;5.00;;;;;;;;;;5074309;28;20482;-69
2021/12/27 13:25:28;;;;;;;6.03;4.82;;;;;;;;;;5056119;28;20040;-69
2021/12/27 13:28:04;;;;;;;6.28;5.07;;;;;;;;;;5074498;28;20051;-71
2021/12/27 13:30:30;;;;;;;7.55;4.93;;;;;;;;;;5074704;28;20044;-72
2021/12/27 13:32:56;;;;;;;6.30;4.93;;;;;;;;;;5074086;28;20377;-71
2021/12/27 13:35:22;;;;;;;5.35;4.70;;;;;;;;;;5074084;28;20021;-72
2021/12/27 13:37:48;;;;;;;5.35;4.80;;;;;;;;;;5074442;28;20056;-72
2021/12/27 13:40:15;;;;;;;5.82;4.50;;;;;;;;;;5073997;28;20495;-71
2021/12/27 13:42:41;;;;;;;5.75;4.80;;;;;;;;;;5056490;28;20119;-71
2021/12/27 13:45:09;;;;;;;5.13;4.45;;;;;;;;;;5074948;28;20024;-68
2021/12/27 13:47:35;;;;;;;6.15;4.43;;;;;;;;;;5074434;28;20032;-68
2021/12/27 13:50:01;;;;;;;5.68;4.75;;;;;;;;;;5074320;28;20025;-69
2021/12/27 13:52:27;;;;;;;6.20;4.78;;;;;;;;;;5074189;28;20024;-69
2021/12/27 13:54:54;;;;;;;5.32;4.53;;;;;;;;;;5056167;28;20025;-71
2021/12/27 13:57:43;;;;;;;5.90;4.90;;;;;;;;;;5055359;28;20499;-72
2021/12/27 14:00:10;;;;;;;6.32;5.05;;;;;;;;;;5073127;28;20013;-71
2021/12/27 14:02:41;;;;;;;5.80;4.75;;;;;;;;;;5055101;28;20028;-70
2021/12/27 14:05:07;;;;;;;6.78;5.28;;;;;;;;;;5073479;28;20023;-71
2021/12/27 14:07:34;;;;;;;6.22;4.53;;;;;;;;;;5073214;28;20477;-70
2021/12/27 14:10:00;;;;;;;5.07;4.45;;;;;;;;;;5072800;28;20033;-71
2021/12/27 14:12:30;;;;;;;6.45;5.00;;;;;;;;;;5072917;28;20032;-69
2021/12/27 14:15:01;;;;;;;6.35;5.28;;;;;;;;;;5072894;28;20024;-72
2021/12/27 14:17:28;;;;;;;5.40;4.32;;;;;;;;;;5073059;28;20037;-73
2021/12/27 14:20:08;;;;;;;5.88;4.82;;;;;;;;;;5073006;28;20077;-68
2021/12/27 14:22:45;;;;;;;5.10;4.50;;;;;;;;;;5072411;28;20045;-70
2021/12/27 14:25:12;;;;;;;6.13;4.20;;;;;;;;;;5069865;28;20391;-72
2021/12/27 14:27:46;;;;;;;5.30;4.47;;;;;;;;;;5093021;28;20039;-72
2021/12/27 14:30:19;;;;;;;5.97;5.05;;;;;;;;;;5074884;28;20047;-71
2021/12/27 14:33:00;;;;;;;5.65;4.63;;;;;;;;;;5074684;28;20093;-71
2021/12/27 14:35:26;;;;;;;6.05;4.45;;;;;;;;;;5092994;28;20024;-71
2021/12/27 14:37:53;;;;;;;5.53;4.40;;;;;;;;;;5093425;28;20024;-71
2021/12/27 14:40:23;;;;;;;6.38;4.55;;;;;;;;;;5075072;28;20054;-71
2021/12/27 14:42:54;;;;;;;5.68;4.35;;;;;;;;;;5075584;28;20032;-73
2021/12/27 14:45:20;;;;;;;5.20;4.22;;;;;;;;;;5093307;28;20016;-71
2021/12/27 14:47:47;;;;;;;5.53;4.68;;;;;;;;;;5074976;28;20028;-71
2021/12/27 14:50:14;;;;;;;5.05;4.50;;;;;;;;;;5074986;28;20030;-73